Airfield :
LOGIN :

Register | Disclaimer

   EN    FR    IT 

 










Legend :    VFR   Marginal VFR   IFR   Intensive IFR   Very Intensive IFR
Visi :
Ceiling :
>= 8 km
>= 3000ft
5 to 8 km
1000 to 3000 ft
1500m to 5 km
500 to 1000 ft
800 to 1500m
200 to 500 ft
< 800m
< 200 ft
Symbols :   Thunderstorms  Fog  Heavy snow  Heavy precipitations  Wind > 20 kt
SIGMETs :     Misc.  Thunderstorms  Icing  Turbulence  Mountain Waves  Volcanic Ashes






- Airport Elevation : 74 ft
- IATA code : MRS


LFML - Marseille / Marignane

CURRENT METAR :
  • 170330Z AUTO 13008KT 9999 BKN016 OVC022 13/11 Q1026 TEMPO OVC010

EXPIRED METARs :
  • 170300Z AUTO 12007KT 9999 BKN019 BKN026 BKN033 13/11 Q1026 TEMPO OVC010
  • 170230Z AUTO 11007KT 9999 BKN020 OVC027 13/11 Q1026 TEMPO OVC010
  • 170200Z AUTO 11008KT 9999 BKN020 OVC048 13/11 Q1026 TEMPO OVC010
  • 170130Z AUTO 11008KT 9999 BKN020 BKN026 BKN032 13/11 Q1026 TEMPO OVC010
  • 170100Z AUTO 11010KT 9999 BKN019 OVC024 13/11 Q1026 TEMPO OVC010

TAF TAF LFML
Valid from the 17 at 03:00 until the 18 at 09:00 UTC


170200Z 1703/1809 12007KT 9999 BKN020 OVC030 TX16/1712Z TN10/1703Z
TEMPO 1703/1716 -RA OVC010
BECMG 1716/1718 32010KT
BECMG 1720/1722 CAVOK
BECMG 1803/1805 33020G30KT
ATIS : +33 4 42 31 15 15



MET'MAP, your aeronautical weather chart ! - Copyright ORBIFLY December 2007 - Disclaimer

ORBIFLY MET'MAP TEAM :

Programming & Development : Alexandra Zaïnal
Concept & original design : Baudouin d'Aumeries
Assistance for programming : Marc-Olivier Méhu
Technical & hardware support : Manuel Goepfert

Contact : metmap@orbifly.com




SOURCES & CREDITS :

   NOAA